Terminal Aerodrome Forecast
Issued by NWS Sterling, VA

Home | Current Version | Previous Version | Text Only | Print | Product List | Glossary On
Versions: 1 2 3 4 5 6 7 8 9 10 11 12 13 14 15 16
000
FTUS41 KLWX 040541 RRA
TAFCHO
TAF
KCHO 040541Z 0406/0506 00000KT 1SM BR OVC003
     FM041200 36004KT 1SM -RA OVC003
     FM041400 VRB03KT 2SM -RA OVC008
     FM042100 09004KT P6SM -RA BKN050
     FM050200 00000KT 5SM -SHRA OVC020
     FM050300 00000KT 3SM SHRA OVC008=

USA.gov is the U.S. government's official web portal to all federal, state and local government web resources and services.